createdAt,value
2019-03-27T00:00:43.696Z,97955.55
2019-03-27T00:03:32.190Z,97956.99
2019-03-27T00:06:20.428Z,97957.78
2019-03-27T00:08:51.306Z,97955.58
2019-03-27T00:11:19.982Z,97951.75
2019-03-27T00:14:08.161Z,97949.63
2019-03-27T00:16:56.397Z,97954.23
2019-03-27T00:19:44.710Z,97945.95
2019-03-27T00:25:48.639Z,97942.76
2019-03-27T00:28:36.483Z,97941.78
2019-03-27T00:33:59.427Z,97935.83
2019-03-27T00:36:28.191Z,97941.33
2019-03-27T00:42:23.979Z,97931.77
2019-03-27T00:45:25.371Z,97929.33
2019-03-27T00:47:42.679Z,97928.88
2019-03-27T00:50:51.403Z,97936.13
2019-03-27T00:53:20.085Z,97924.81
2019-03-27T00:56:08.682Z,97931.58
2019-03-27T01:01:44.594Z,97927.01
2019-03-27T01:04:53.429Z,97926.59
2019-03-27T01:13:03.664Z,97921.75
2019-03-27T01:15:51.481Z,97934.33
2019-03-27T01:18:39.908Z,97928.84
2019-03-27T01:21:48.398Z,97924.19
2019-03-27T01:24:17.049Z,97921.52
2019-03-27T01:26:45.700Z,97920.95
2019-03-27T01:29:33.574Z,97917.12
2019-03-27T01:32:22.036Z,97917.27
2019-03-27T01:37:46.097Z,97908.33
2019-03-27T01:45:53.326Z,97905.34
2019-03-27T01:48:20.181Z,97910.81
2019-03-27T01:50:49.297Z,97905.60
2019-03-27T01:53:19.626Z,97903.23
2019-03-27T01:58:55.707Z,97911.64
2019-03-27T02:01:24.391Z,97912.08
2019-03-27T02:03:53.088Z,97908.66
2019-03-27T02:06:21.746Z,97908.66
2019-03-27T02:08:50.390Z,97909.19
2019-03-27T02:11:19.332Z,97908.46
2019-03-27T02:14:07.295Z,97908.94
2019-03-27T02:16:35.940Z,97917.23
2019-03-27T02:21:40.266Z,97908.19
2019-03-27T02:24:28.221Z,97909.85
2019-03-27T02:27:16.558Z,97909.14
2019-03-27T02:30:05.002Z,97912.70
2019-03-27T02:32:33.726Z,97910.38
2019-03-27T02:35:22.310Z,97906.37
2019-03-27T02:37:51.171Z,97912.55
2019-03-27T02:40:20.327Z,97914.13
2019-03-27T02:42:48.906Z,97918.24
2019-03-27T02:45:17.598Z,97915.19
2019-03-27T02:47:46.746Z,97913.59
2019-03-27T02:52:52.080Z,97920.82
2019-03-27T02:58:28.765Z,97914.89
2019-03-27T03:00:58.028Z,97921.89
2019-03-27T03:06:35.270Z,97927.60
2019-03-27T03:12:12.088Z,97920.46
2019-03-27T03:15:00.496Z,97920.43
2019-03-27T03:17:51.216Z,97921.09
2019-03-27T03:28:38.134Z,97913.06
2019-03-27T03:31:07.240Z,97918.09
2019-03-27T03:33:36.546Z,97914.07
2019-03-27T03:36:05.206Z,97912.37
2019-03-27T03:38:34.343Z,97911.82
2019-03-27T03:41:03.691Z,97912.64
2019-03-27T03:43:32.406Z,97924.28
2019-03-27T03:46:21.185Z,97925.17
2019-03-27T03:48:50.364Z,97927.21
2019-03-27T03:51:39.219Z,97927.59
2019-03-27T03:57:22.266Z,97924.85
2019-03-27T04:00:12.259Z,97916.36
2019-03-27T04:03:21.726Z,97920.09
2019-03-27T04:06:30.456Z,97928.71
2019-03-27T04:11:53.922Z,97921.91
2019-03-27T04:14:22.996Z,97923.62
2019-03-27T04:16:52.013Z,97922.84
2019-03-27T04:22:27.568Z,97925.73
2019-03-27T04:24:56.752Z,97927.86
2019-03-27T04:27:45.250Z,97934.09
2019-03-27T04:30:16.378Z,97926.08
2019-03-27T04:33:04.360Z,97921.91
2019-03-27T04:36:13.272Z,97923.66
2019-03-27T04:39:01.746Z,97923.76
2019-03-27T04:44:27.252Z,97926.92
2019-03-27T04:47:15.602Z,97927.52
2019-03-27T04:49:45.257Z,97929.98
2019-03-27T04:55:40.616Z,97930.36
2019-03-27T04:58:09.240Z,97930.41
2019-03-27T05:00:37.930Z,97929.05
2019-03-27T05:03:06.677Z,97933.36
2019-03-27T05:05:35.363Z,97938.52
2019-03-27T05:08:23.139Z,97941.61
2019-03-27T05:11:32.081Z,97944.70
2019-03-27T05:14:19.843Z,97939.52
2019-03-27T05:17:28.642Z,97949.62
2019-03-27T05:19:59.350Z,97949.23
2019-03-27T05:22:48.877Z,97959.55
2019-03-27T05:25:57.953Z,97959.75
2019-03-27T05:28:46.060Z,97958.90
2019-03-27T05:31:15.020Z,97955.55
2019-03-27T05:34:23.658Z,97955.80
2019-03-27T05:36:54.800Z,97958.46
2019-03-27T05:39:42.643Z,97961.27
2019-03-27T05:42:11.843Z,97962.42
2019-03-27T05:44:40.563Z,97965.17
2019-03-27T05:47:09.213Z,97971.19
2019-03-27T05:49:37.936Z,97977.18
2019-03-27T05:55:41.243Z,97984.44
2019-03-27T05:58:11.714Z,97989.11
2019-03-27T06:04:06.570Z,97990.13
2019-03-27T06:06:54.687Z,97993.62
2019-03-27T06:09:42.426Z,97995.11
2019-03-27T06:14:59.127Z,97994.72
2019-03-27T06:17:47.002Z,98001.89
2019-03-27T06:23:43.067Z,97995.05
2019-03-27T06:26:11.579Z,98002.09
2019-03-27T06:28:59.369Z,98003.98
2019-03-27T06:31:47.277Z,97997.16
2019-03-27T06:34:35.165Z,98002.11
2019-03-27T06:37:03.737Z,98002.85
2019-03-27T06:39:32.360Z,98003.54
2019-03-27T06:42:01.127Z,98004.36
2019-03-27T06:44:29.705Z,98009.64
2019-03-27T06:46:58.396Z,98007.66
2019-03-27T06:49:27.092Z,98013.05
2019-03-27T06:51:55.768Z,98011.16
2019-03-27T06:54:24.276Z,98015.19
2019-03-27T06:56:52.984Z,98018.84
2019-03-27T06:59:40.858Z,98014.05
2019-03-27T07:02:09.559Z,98010.64
2019-03-27T07:04:38.222Z,98010.05
2019-03-27T07:07:26.260Z,98023.50
2019-03-27T07:09:54.823Z,98021.14
2019-03-27T07:12:42.650Z,98022.52
2019-03-27T07:15:51.077Z,98029.88
2019-03-27T07:18:19.625Z,98022.04
2019-03-27T07:20:48.198Z,98030.91
2019-03-27T07:23:16.882Z,98026.52
2019-03-27T07:26:04.976Z,98033.52
2019-03-27T07:28:33.666Z,98032.77
2019-03-27T07:31:02.252Z,98034.46
2019-03-27T07:33:50.122Z,98028.88
2019-03-27T07:36:18.754Z,98033.80
2019-03-27T07:39:11.171Z,98033.33
2019-03-27T07:41:36.943Z,98040.20
2019-03-27T07:44:05.703Z,98030.54
2019-03-27T07:46:53.610Z,98039.85
2019-03-27T07:49:22.230Z,98044.61
2019-03-27T07:52:10.104Z,98049.62
2019-03-27T07:54:38.760Z,98049.39
2019-03-27T07:57:26.629Z,98050.92
2019-03-27T08:00:14.553Z,98055.84
2019-03-27T08:03:23.049Z,98058.00
2019-03-27T08:06:10.813Z,98061.23
2019-03-27T08:08:39.498Z,98055.05
2019-03-27T08:11:27.388Z,98051.45
2019-03-27T08:14:16.942Z,98057.47
2019-03-27T08:16:45.600Z,98050.63
2019-03-27T08:19:14.274Z,98056.77
2019-03-27T08:22:02.156Z,98058.36
2019-03-27T08:24:30.841Z,98062.77
2019-03-27T08:26:59.490Z,98064.77
2019-03-27T08:29:28.181Z,98061.56
2019-03-27T08:31:56.826Z,98058.78
2019-03-27T08:34:25.547Z,98046.11
2019-03-27T08:36:54.202Z,98054.42
2019-03-27T08:39:22.815Z,98053.60
2019-03-27T08:41:51.513Z,98056.56
2019-03-27T08:44:39.387Z,98059.64
2019-03-27T08:47:08.038Z,98063.48
2019-03-27T08:49:36.613Z,98073.22
2019-03-27T08:52:24.408Z,98070.91
2019-03-27T08:55:13.865Z,98070.63
2019-03-27T08:58:01.743Z,98072.48
2019-03-27T09:01:10.256Z,98075.45
2019-03-27T09:03:38.942Z,98077.67
2019-03-27T09:06:33.532Z,98077.76
2019-03-27T09:09:16.463Z,98076.16
2019-03-27T09:11:45.119Z,98072.89
2019-03-27T09:14:13.812Z,98076.09
2019-03-27T09:16:42.451Z,98079.91
2019-03-27T09:19:11.134Z,98079.27
2019-03-27T09:21:39.833Z,98076.84
2019-03-27T09:24:08.466Z,98069.62
2019-03-27T09:26:37.151Z,98066.86
2019-03-27T09:29:24.983Z,98058.59
2019-03-27T09:32:12.860Z,98060.56
2019-03-27T09:34:41.521Z,98064.54
2019-03-27T09:37:10.223Z,98068.78
2019-03-27T09:39:57.957Z,98070.97
2019-03-27T09:42:26.600Z,98059.82
2019-03-27T09:45:14.478Z,98075.30
2019-03-27T09:47:43.173Z,98073.73
2019-03-27T09:50:51.597Z,98068.11
2019-03-27T09:53:20.206Z,98068.71
2019-03-27T09:56:18.400Z,98070.91
2019-03-27T09:58:57.427Z,98070.24
2019-03-27T10:01:26.112Z,98069.08
2019-03-27T10:04:13.892Z,98065.14
2019-03-27T10:07:01.753Z,98071.13
2019-03-27T10:09:30.329Z,98065.09
2019-03-27T10:12:18.192Z,98062.52
2019-03-27T10:14:47.763Z,98062.79
2019-03-27T10:17:17.271Z,98060.31
2019-03-27T10:19:45.924Z,98068.11
2019-03-27T10:22:33.796Z,98066.10
2019-03-27T10:25:02.448Z,98068.80
2019-03-27T10:27:31.062Z,98061.72
2019-03-27T10:29:59.691Z,98058.22
2019-03-27T10:32:28.379Z,98063.20
2019-03-27T10:34:57.065Z,98055.13
2019-03-27T10:37:44.899Z,98058.84
2019-03-27T10:40:13.676Z,98067.09
2019-03-27T10:42:42.251Z,98065.08
2019-03-27T10:48:05.658Z,98066.64
2019-03-27T10:50:53.493Z,98064.72
2019-03-27T10:53:41.306Z,98071.15
2019-03-27T10:56:09.956Z,98064.31
2019-03-27T10:58:57.830Z,98065.86
2019-03-27T11:01:45.572Z,98060.23
2019-03-27T11:04:14.219Z,98064.17
2019-03-27T11:06:42.902Z,98066.64
2019-03-27T11:12:19.708Z,98060.70
2019-03-27T11:15:07.463Z,98057.16
2019-03-27T11:17:37.870Z,98056.86
2019-03-27T11:20:46.338Z,98056.63
2019-03-27T11:23:15.006Z,98058.08
2019-03-27T11:25:43.585Z,98063.54
2019-03-27T11:30:48.350Z,98064.23
2019-03-27T11:33:16.918Z,98063.39
2019-03-27T11:35:45.611Z,98064.00
2019-03-27T11:38:33.387Z,98066.14
2019-03-27T11:41:02.094Z,98056.60
2019-03-27T11:43:54.992Z,98053.68
2019-03-27T11:46:20.182Z,98052.09
2019-03-27T11:49:08.179Z,98057.82
2019-03-27T11:51:36.989Z,98053.66
2019-03-27T11:54:05.634Z,98057.01
2019-03-27T11:56:53.581Z,98046.38
2019-03-27T11:59:22.294Z,98053.06
2019-03-27T12:01:50.982Z,98050.28
2019-03-27T12:04:19.622Z,98051.05
2019-03-27T12:07:07.477Z,98048.75
2019-03-27T12:09:36.034Z,98052.19
2019-03-27T12:12:04.687Z,98051.11
2019-03-27T12:14:52.559Z,98049.09
2019-03-27T12:17:40.599Z,98051.84
2019-03-27T12:23:17.324Z,98045.41
2019-03-27T12:26:05.097Z,98045.05
2019-03-27T12:31:28.646Z,98042.37
2019-03-27T12:33:57.287Z,98038.84
2019-03-27T12:36:45.167Z,98033.29
2019-03-27T12:39:32.994Z,98033.59
2019-03-27T12:42:01.681Z,98034.41
2019-03-27T12:47:18.000Z,98041.73
2019-03-27T12:50:05.751Z,98034.48
2019-03-27T12:52:34.371Z,98033.99
2019-03-27T12:55:03.122Z,98034.68
2019-03-27T12:57:31.910Z,98032.00
2019-03-27T13:00:40.342Z,98030.70
2019-03-27T13:03:48.798Z,98028.70
2019-03-27T13:06:17.374Z,98031.64
2019-03-27T13:09:05.243Z,98031.63
2019-03-27T13:11:36.695Z,98031.86
2019-03-27T13:14:04.546Z,98030.18
2019-03-27T13:16:52.592Z,98032.47
2019-03-27T13:19:22.824Z,98028.98
2019-03-27T13:21:51.565Z,98028.28
2019-03-27T13:24:20.269Z,98028.67
2019-03-27T13:26:48.911Z,98024.44
2019-03-27T13:29:36.791Z,98024.14
2019-03-27T13:32:24.620Z,98016.91
2019-03-27T13:34:53.232Z,98018.73
2019-03-27T13:37:41.106Z,98017.20
2019-03-27T13:40:49.567Z,98021.24
2019-03-27T13:43:18.183Z,98017.32
2019-03-27T13:45:46.806Z,98013.26
2019-03-27T13:48:34.627Z,98011.70
2019-03-27T13:51:22.367Z,98015.74
2019-03-27T13:53:50.913Z,98012.80
2019-03-27T13:56:38.715Z,98011.58
2019-03-27T13:59:28.284Z,98010.88
2019-03-27T14:02:16.204Z,97999.34
2019-03-27T14:04:44.888Z,97999.77
2019-03-27T14:07:13.949Z,97995.78
2019-03-27T14:09:42.554Z,97994.47
2019-03-27T14:12:11.212Z,97991.45
2019-03-27T14:14:50.071Z,97995.71
2019-03-27T14:17:10.115Z,97992.91
2019-03-27T14:19:57.993Z,97991.02
2019-03-27T14:22:26.640Z,97985.72
2019-03-27T14:24:55.375Z,97994.08
2019-03-27T14:27:24.021Z,97994.13
2019-03-27T14:29:52.711Z,97994.80
2019-03-27T14:32:21.346Z,98000.11
2019-03-27T14:34:49.970Z,97989.98
2019-03-27T14:37:18.588Z,98001.02
2019-03-27T14:40:27.104Z,97999.50
2019-03-27T14:43:15.086Z,97994.52
2019-03-27T14:45:43.702Z,97999.92
2019-03-27T14:48:12.454Z,97990.13
2019-03-27T14:50:41.127Z,97996.63
2019-03-27T14:53:28.982Z,97999.52
2019-03-27T14:55:57.600Z,97996.07
2019-03-27T14:58:26.242Z,97998.01
2019-03-27T15:01:14.190Z,98003.12
2019-03-27T15:03:42.888Z,98009.84
2019-03-27T15:06:11.634Z,98008.30
2019-03-27T15:08:40.274Z,98009.82
2019-03-27T15:11:08.951Z,98007.45
2019-03-27T15:13:56.849Z,98008.83
2019-03-27T15:16:44.783Z,98016.63
2019-03-27T15:19:32.647Z,98017.87
2019-03-27T15:22:22.690Z,98015.56
2019-03-27T15:24:50.848Z,98014.70
2019-03-27T15:29:54.840Z,98017.92
2019-03-27T15:32:42.689Z,98019.26
2019-03-27T15:38:05.641Z,98011.84
2019-03-27T15:40:53.596Z,98019.03
2019-03-27T15:43:22.282Z,98011.20
2019-03-27T15:46:10.096Z,98014.63
2019-03-27T15:48:38.782Z,98012.76
2019-03-27T15:51:07.429Z,98010.75
2019-03-27T15:53:36.205Z,98012.69
2019-03-27T15:59:32.199Z,98013.25
2019-03-27T16:02:20.019Z,98012.73
2019-03-27T16:04:48.726Z,98009.39
2019-03-27T16:07:17.370Z,98013.53
2019-03-27T16:09:46.065Z,98015.83
2019-03-27T16:12:14.679Z,98015.17
2019-03-27T16:14:43.250Z,98017.50
2019-03-27T16:17:13.521Z,98017.70
2019-03-27T16:19:42.249Z,98013.34
2019-03-27T16:22:51.270Z,98015.41
2019-03-27T16:28:15.748Z,98014.16
2019-03-27T16:31:03.434Z,98016.45
2019-03-27T16:33:32.062Z,98016.26
2019-03-27T16:36:19.895Z,98012.00
2019-03-27T16:39:07.707Z,98014.52
2019-03-27T16:41:36.341Z,98017.42
2019-03-27T16:44:05.130Z,98022.70
2019-03-27T16:46:33.785Z,98023.84
2019-03-27T16:49:21.535Z,98029.08
2019-03-27T16:51:50.255Z,98027.24
2019-03-27T16:54:18.943Z,98027.77
2019-03-27T16:57:06.827Z,98025.07
2019-03-27T16:59:35.334Z,98033.77
2019-03-27T17:02:04.044Z,98032.09
2019-03-27T17:04:32.724Z,98036.22
2019-03-27T17:07:20.412Z,98041.11
2019-03-27T17:10:08.350Z,98041.84
2019-03-27T17:15:24.610Z,98045.93
2019-03-27T17:17:53.100Z,98051.28
2019-03-27T17:20:21.773Z,98053.41
2019-03-27T17:22:50.401Z,98054.48
2019-03-27T17:25:38.223Z,98054.59
2019-03-27T17:28:26.130Z,98056.70
2019-03-27T17:31:13.973Z,98058.44
2019-03-27T17:33:42.565Z,98054.67
2019-03-27T17:36:30.414Z,98068.21
2019-03-27T17:38:59.043Z,98072.63
2019-03-27T17:41:46.870Z,98072.36
2019-03-27T17:44:34.660Z,98075.37
2019-03-27T17:47:22.492Z,98074.36
2019-03-27T17:50:10.329Z,98077.94
2019-03-27T17:52:58.167Z,98084.09
2019-03-27T17:55:26.854Z,98077.33
2019-03-27T17:58:14.605Z,98085.39
2019-03-27T18:01:23.106Z,98089.45
2019-03-27T18:04:10.991Z,98088.95
2019-03-27T18:06:58.873Z,98084.53
2019-03-27T18:09:27.576Z,98089.98
2019-03-27T18:11:56.231Z,98090.20
2019-03-27T18:14:44.062Z,98099.58
2019-03-27T18:17:31.848Z,98100.50
2019-03-27T18:20:19.626Z,98100.07
2019-03-27T18:23:07.594Z,98098.22
2019-03-27T18:25:55.406Z,98102.91
2019-03-27T18:28:43.214Z,98106.44
2019-03-27T18:31:31.106Z,98111.98
2019-03-27T18:34:19.011Z,98119.80
2019-03-27T18:37:06.877Z,98113.23
2019-03-27T18:42:43.750Z,98118.89
2019-03-27T18:45:12.449Z,98120.06
2019-03-27T18:48:00.258Z,98127.38
2019-03-27T18:50:28.924Z,98124.55
2019-03-27T18:53:37.431Z,98129.58
2019-03-27T18:56:25.313Z,98129.80
2019-03-27T18:59:13.192Z,98136.60
2019-03-27T19:02:01.062Z,98136.00
2019-03-27T19:04:48.888Z,98139.48
2019-03-27T19:07:36.779Z,98150.48
2019-03-27T19:12:58.463Z,98151.66
2019-03-27T19:15:46.258Z,98148.30
2019-03-27T19:21:21.827Z,98152.11
2019-03-27T19:26:57.332Z,98157.59
2019-03-27T19:29:26.016Z,98155.63
2019-03-27T19:31:54.679Z,98162.62
2019-03-27T19:34:23.357Z,98168.11
2019-03-27T19:36:52.128Z,98171.55
2019-03-27T19:39:39.999Z,98170.27
2019-03-27T19:42:27.950Z,98172.02
2019-03-27T19:47:38.390Z,98177.70
2019-03-27T19:50:46.811Z,98177.73
2019-03-27T19:53:34.687Z,98176.99
2019-03-27T19:56:22.460Z,98177.31
2019-03-27T19:59:10.323Z,98180.31
2019-03-27T20:01:58.187Z,98184.74
2019-03-27T20:04:26.732Z,98181.53
2019-03-27T20:07:14.616Z,98183.47
2019-03-27T20:10:02.368Z,98181.25
2019-03-27T20:12:50.244Z,98183.23
2019-03-27T20:15:18.892Z,98179.53
2019-03-27T20:17:47.586Z,98177.72
2019-03-27T20:20:16.429Z,98183.36
2019-03-27T20:22:45.082Z,98182.47
2019-03-27T20:25:53.557Z,98184.42
2019-03-27T20:28:22.132Z,98180.09
2019-03-27T20:31:10.011Z,98183.88
2019-03-27T20:33:57.845Z,98185.13
2019-03-27T20:36:45.723Z,98175.49
2019-03-27T20:39:15.937Z,98185.27
2019-03-27T20:42:03.911Z,98180.48
2019-03-27T20:44:51.774Z,98180.05
2019-03-27T20:47:39.599Z,98180.91
2019-03-27T20:50:48.058Z,98182.30
2019-03-27T20:53:35.896Z,98184.47
2019-03-27T20:56:15.377Z,98178.84
2019-03-27T20:58:43.985Z,98182.08
2019-03-27T21:01:12.640Z,98187.09
2019-03-27T21:04:00.418Z,98185.84
2019-03-27T21:06:29.018Z,98183.54
2019-03-27T21:08:57.670Z,98184.38
2019-03-27T21:11:45.475Z,98176.98
2019-03-27T21:14:13.982Z,98181.91
2019-03-27T21:17:01.857Z,98187.61
2019-03-27T21:19:49.789Z,98191.89
2019-03-27T21:22:18.445Z,98188.95
2019-03-27T21:24:47.057Z,98189.85
2019-03-27T21:27:16.992Z,98191.06
2019-03-27T21:30:25.877Z,98181.72
2019-03-27T21:33:13.716Z,98187.30
2019-03-27T21:36:01.617Z,98187.48
2019-03-27T21:38:49.445Z,98194.09
2019-03-27T21:41:37.381Z,98187.48
2019-03-27T21:47:33.293Z,98191.52
2019-03-27T21:50:02.054Z,98195.07
2019-03-27T21:52:30.722Z,98189.61
2019-03-27T21:55:43.031Z,98190.80
2019-03-27T21:58:30.399Z,98195.01
2019-03-27T22:04:26.275Z,98200.30
2019-03-27T22:07:14.132Z,98195.81
2019-03-27T22:10:02.007Z,98199.19
2019-03-27T22:12:49.863Z,98201.45
2019-03-27T22:15:37.690Z,98199.88
2019-03-27T22:18:06.672Z,98197.25
2019-03-27T22:20:54.448Z,98203.73
2019-03-27T22:23:23.376Z,98197.60
2019-03-27T22:26:11.300Z,98197.22
2019-03-27T22:28:59.144Z,98201.38
2019-03-27T22:31:27.831Z,98199.88
2019-03-27T22:33:56.327Z,98204.72
2019-03-27T22:36:44.101Z,98199.24
2019-03-27T22:39:31.892Z,98198.56
2019-03-27T22:42:19.747Z,98206.24
2019-03-27T22:45:07.624Z,98202.81
2019-03-27T22:47:55.465Z,98201.98
2019-03-27T22:50:43.297Z,98205.95
2019-03-27T22:53:31.208Z,98204.38
2019-03-27T22:56:18.933Z,98210.69
2019-03-27T22:59:06.788Z,98206.27
2019-03-27T23:02:15.238Z,98203.42
2019-03-27T23:05:03.059Z,98204.03
2019-03-27T23:07:50.922Z,98200.73
2019-03-27T23:10:38.754Z,98208.10
2019-03-27T23:13:07.440Z,98206.12
2019-03-27T23:15:36.008Z,98206.19
2019-03-27T23:18:04.700Z,98206.95
2019-03-27T23:20:52.465Z,98199.27
2019-03-27T23:23:21.148Z,98202.73
2019-03-27T23:26:02.210Z,98208.22
2019-03-27T23:28:20.126Z,98209.80
2019-03-27T23:30:48.782Z,98213.81
2019-03-27T23:33:36.648Z,98211.53
2019-03-27T23:36:24.418Z,98210.25
2019-03-27T23:39:32.889Z,98207.97
2019-03-27T23:42:20.719Z,98201.83
2019-03-27T23:45:09.175Z,98197.95
2019-03-27T23:50:45.977Z,98199.71
2019-03-27T23:53:14.761Z,98198.80
2019-03-27T23:56:15.585Z,98198.31
2019-03-27T23:58:32.919Z,98204.16
